sensor_id;sensor_type;location;lat;lon;timestamp;P1;durP1;ratioP1;P2;durP2;ratioP2
3865;SDS011;1948;53.250;10.412;2023-01-26T00:02:00;62.43;;;23.00;;
3865;SDS011;1948;53.250;10.412;2023-01-26T00:04:29;57.20;;;22.30;;
3865;SDS011;1948;53.250;10.412;2023-01-26T00:06:56;58.13;;;23.23;;
3865;SDS011;1948;53.250;10.412;2023-01-26T00:09:23;52.47;;;21.10;;
3865;SDS011;1948;53.250;10.412;2023-01-26T00:11:50;51.13;;;21.13;;
3865;SDS011;1948;53.250;10.412;2023-01-26T00:14:17;57.73;;;21.90;;
3865;SDS011;1948;53.250;10.412;2023-01-26T00:16:44;58.63;;;21.37;;
3865;SDS011;1948;53.250;10.412;2023-01-26T00:19:11;77.07;;;24.10;;
3865;SDS011;1948;53.250;10.412;2023-01-26T00:21:38;54.27;;;22.23;;
3865;SDS011;1948;53.250;10.412;2023-01-26T00:24:07;60.97;;;23.53;;
3865;SDS011;1948;53.250;10.412;2023-01-26T00:26:34;63.20;;;23.27;;
3865;SDS011;1948;53.250;10.412;2023-01-26T00:29:03;57.77;;;22.83;;
3865;SDS011;1948;53.250;10.412;2023-01-26T00:31:33;56.73;;;22.00;;
3865;SDS011;1948;53.250;10.412;2023-01-26T00:33:59;62.17;;;23.73;;
3865;SDS011;1948;53.250;10.412;2023-01-26T00:36:29;63.23;;;22.97;;
3865;SDS011;1948;53.250;10.412;2023-01-26T00:38:56;65.20;;;23.83;;
3865;SDS011;1948;53.250;10.412;2023-01-26T00:41:25;58.83;;;23.00;;
3865;SDS011;1948;53.250;10.412;2023-01-26T00:44:10;62.00;;;23.30;;
3865;SDS011;1948;53.250;10.412;2023-01-26T00:46:39;58.37;;;23.53;;
3865;SDS011;1948;53.250;10.412;2023-01-26T00:49:07;63.47;;;23.13;;
3865;SDS011;1948;53.250;10.412;2023-01-26T00:51:36;65.23;;;23.63;;
3865;SDS011;1948;53.250;10.412;2023-01-26T00:54:03;62.53;;;25.00;;
3865;SDS011;1948;53.250;10.412;2023-01-26T00:56:33;62.50;;;23.77;;
3865;SDS011;1948;53.250;10.412;2023-01-26T00:59:01;66.03;;;25.97;;
3865;SDS011;1948;53.250;10.412;2023-01-26T01:01:28;56.33;;;23.67;;
3865;SDS011;1948;53.250;10.412;2023-01-26T01:03:57;66.97;;;24.50;;
3865;SDS011;1948;53.250;10.412;2023-01-26T01:06:26;68.00;;;24.43;;
3865;SDS011;1948;53.250;10.412;2023-01-26T01:08:53;68.40;;;25.93;;
3865;SDS011;1948;53.250;10.412;2023-01-26T01:11:20;68.50;;;26.30;;
3865;SDS011;1948;53.250;10.412;2023-01-26T01:13:49;62.37;;;23.80;;
3865;SDS011;1948;53.250;10.412;2023-01-26T01:16:21;66.00;;;23.50;;
3865;SDS011;1948;53.250;10.412;2023-01-26T01:18:54;73.13;;;25.27;;
3865;SDS011;1948;53.250;10.412;2023-01-26T01:21:24;69.33;;;24.30;;
3865;SDS011;1948;53.250;10.412;2023-01-26T01:23:51;74.57;;;26.37;;
3865;SDS011;1948;53.250;10.412;2023-01-26T01:26:23;61.20;;;24.30;;
3865;SDS011;1948;53.250;10.412;2023-01-26T01:28:52;61.33;;;24.77;;
3865;SDS011;1948;53.250;10.412;2023-01-26T01:31:23;68.87;;;25.00;;
3865;SDS011;1948;53.250;10.412;2023-01-26T01:33:51;59.13;;;22.57;;
3865;SDS011;1948;53.250;10.412;2023-01-26T01:36:19;60.33;;;23.40;;
3865;SDS011;1948;53.250;10.412;2023-01-26T01:38:46;61.17;;;24.10;;
3865;SDS011;1948;53.250;10.412;2023-01-26T01:41:17;66.77;;;25.97;;
3865;SDS011;1948;53.250;10.412;2023-01-26T01:43:48;60.40;;;24.20;;
3865;SDS011;1948;53.250;10.412;2023-01-26T01:46:19;64.97;;;23.27;;
3865;SDS011;1948;53.250;10.412;2023-01-26T01:49:05;65.57;;;24.30;;
3865;SDS011;1948;53.250;10.412;2023-01-26T01:51:44;66.87;;;24.30;;
3865;SDS011;1948;53.250;10.412;2023-01-26T01:54:45;60.77;;;24.53;;
3865;SDS011;1948;53.250;10.412;2023-01-26T01:57:21;62.83;;;24.60;;
3865;SDS011;1948;53.250;10.412;2023-01-26T02:00:05;72.60;;;24.67;;
3865;SDS011;1948;53.250;10.412;2023-01-26T02:02:35;68.60;;;25.07;;
3865;SDS011;1948;53.250;10.412;2023-01-26T02:05:07;60.40;;;24.07;;
3865;SDS011;1948;53.250;10.412;2023-01-26T02:07:46;65.20;;;24.63;;
3865;SDS011;1948;53.250;10.412;2023-01-26T02:10:18;68.37;;;26.27;;
3865;SDS011;1948;53.250;10.412;2023-01-26T02:12:52;56.37;;;23.47;;
3865;SDS011;1948;53.250;10.412;2023-01-26T02:15:27;59.50;;;24.00;;
3865;SDS011;1948;53.250;10.412;2023-01-26T02:17:54;64.33;;;25.90;;
3865;SDS011;1948;53.250;10.412;2023-01-26T02:20:23;67.50;;;25.27;;
3865;SDS011;1948;53.250;10.412;2023-01-26T02:28:37;71.30;;;25.50;;
3865;SDS011;1948;53.250;10.412;2023-01-26T02:31:05;66.77;;;25.83;;
3865;SDS011;1948;53.250;10.412;2023-01-26T02:33:33;68.50;;;26.30;;
3865;SDS011;1948;53.250;10.412;2023-01-26T02:36:03;68.87;;;28.43;;
3865;SDS011;1948;53.250;10.412;2023-01-26T02:38:41;72.20;;;25.30;;
3865;SDS011;1948;53.250;10.412;2023-01-26T02:41:13;82.20;;;28.83;;
3865;SDS011;1948;53.250;10.412;2023-01-26T02:44:01;73.30;;;27.13;;
3865;SDS011;1948;53.250;10.412;2023-01-26T02:46:32;69.30;;;27.40;;
3865;SDS011;1948;53.250;10.412;2023-01-26T02:48:59;68.70;;;27.30;;
3865;SDS011;1948;53.250;10.412;2023-01-26T02:51:45;65.27;;;25.80;;
3865;SDS011;1948;53.250;10.412;2023-01-26T02:54:16;80.60;;;26.90;;
3865;SDS011;1948;53.250;10.412;2023-01-26T02:57:06;67.27;;;27.40;;
3865;SDS011;1948;53.250;10.412;2023-01-26T02:59:36;73.90;;;27.30;;
3865;SDS011;1948;53.250;10.412;2023-01-26T03:02:05;78.43;;;27.17;;
3865;SDS011;1948;53.250;10.412;2023-01-26T03:04:32;70.87;;;27.63;;
3865;SDS011;1948;53.250;10.412;2023-01-26T03:07:02;74.13;;;27.73;;
3865;SDS011;1948;53.250;10.412;2023-01-26T03:09:29;71.63;;;26.40;;
3865;SDS011;1948;53.250;10.412;2023-01-26T03:11:55;75.47;;;26.50;;
3865;SDS011;1948;53.250;10.412;2023-01-26T03:14:22;71.53;;;27.40;;
3865;SDS011;1948;53.250;10.412;2023-01-26T03:16:49;78.07;;;27.33;;
3865;SDS011;1948;53.250;10.412;2023-01-26T03:19:16;71.37;;;26.77;;
3865;SDS011;1948;53.250;10.412;2023-01-26T03:22:01;68.97;;;26.03;;
3865;SDS011;1948;53.250;10.412;2023-01-26T03:24:49;65.63;;;25.67;;
3865;SDS011;1948;53.250;10.412;2023-01-26T03:27:39;77.67;;;26.87;;
3865;SDS011;1948;53.250;10.412;2023-01-26T03:30:14;62.10;;;25.40;;
3865;SDS011;1948;53.250;10.412;2023-01-26T03:32:44;73.00;;;27.03;;
3865;SDS011;1948;53.250;10.412;2023-01-26T03:35:11;73.37;;;26.20;;
3865;SDS011;1948;53.250;10.412;2023-01-26T03:37:41;76.00;;;27.67;;
3865;SDS011;1948;53.250;10.412;2023-01-26T03:40:09;67.90;;;26.83;;
3865;SDS011;1948;53.250;10.412;2023-01-26T03:42:58;67.87;;;24.57;;
3865;SDS011;1948;53.250;10.412;2023-01-26T03:45:53;68.73;;;25.67;;
3865;SDS011;1948;53.250;10.412;2023-01-26T03:48:38;70.80;;;26.33;;
3865;SDS011;1948;53.250;10.412;2023-01-26T03:51:27;68.07;;;25.30;;
3865;SDS011;1948;53.250;10.412;2023-01-26T03:54:15;65.57;;;25.17;;
3865;SDS011;1948;53.250;10.412;2023-01-26T03:57:03;61.43;;;24.33;;
3865;SDS011;1948;53.250;10.412;2023-01-26T03:59:37;67.20;;;25.30;;
3865;SDS011;1948;53.250;10.412;2023-01-26T04:02:08;70.10;;;25.40;;
3865;SDS011;1948;53.250;10.412;2023-01-26T04:04:56;66.60;;;24.00;;
3865;SDS011;1948;53.250;10.412;2023-01-26T04:07:43;63.33;;;25.57;;
3865;SDS011;1948;53.250;10.412;2023-01-26T04:10:31;70.97;;;26.97;;
3865;SDS011;1948;53.250;10.412;2023-01-26T04:12:58;78.57;;;28.03;;
3865;SDS011;1948;53.250;10.412;2023-01-26T04:15:46;70.47;;;26.10;;
3865;SDS011;1948;53.250;10.412;2023-01-26T04:18:32;82.33;;;26.57;;
3865;SDS011;1948;53.250;10.412;2023-01-26T04:21:18;70.37;;;26.37;;
3865;SDS011;1948;53.250;10.412;2023-01-26T04:23:57;65.60;;;26.17;;
3865;SDS011;1948;53.250;10.412;2023-01-26T04:26:25;72.43;;;25.33;;
3865;SDS011;1948;53.250;10.412;2023-01-26T04:29:03;71.53;;;25.90;;
3865;SDS011;1948;53.250;10.412;2023-01-26T04:31:36;63.00;;;25.20;;
3865;SDS011;1948;53.250;10.412;2023-01-26T04:34:04;66.97;;;26.10;;
3865;SDS011;1948;53.250;10.412;2023-01-26T04:36:37;75.43;;;25.97;;
3865;SDS011;1948;53.250;10.412;2023-01-26T04:39:07;71.20;;;26.00;;
3865;SDS011;1948;53.250;10.412;2023-01-26T04:41:34;65.50;;;24.37;;
3865;SDS011;1948;53.250;10.412;2023-01-26T04:44:01;62.57;;;24.47;;
3865;SDS011;1948;53.250;10.412;2023-01-26T04:46:28;66.77;;;24.30;;
3865;SDS011;1948;53.250;10.412;2023-01-26T04:48:58;64.27;;;25.53;;
3865;SDS011;1948;53.250;10.412;2023-01-26T04:51:25;64.80;;;23.93;;
3865;SDS011;1948;53.250;10.412;2023-01-26T04:53:58;67.07;;;25.00;;
3865;SDS011;1948;53.250;10.412;2023-01-26T04:56:30;64.23;;;25.37;;
3865;SDS011;1948;53.250;10.412;2023-01-26T04:59:03;76.47;;;23.80;;
3865;SDS011;1948;53.250;10.412;2023-01-26T05:01:34;61.43;;;23.50;;
3865;SDS011;1948;53.250;10.412;2023-01-26T05:04:02;49.93;;;20.83;;
3865;SDS011;1948;53.250;10.412;2023-01-26T05:06:30;52.77;;;23.03;;
3865;SDS011;1948;53.250;10.412;2023-01-26T05:09:00;58.97;;;22.90;;
3865;SDS011;1948;53.250;10.412;2023-01-26T05:11:27;67.90;;;24.23;;
3865;SDS011;1948;53.250;10.412;2023-01-26T05:13:54;61.50;;;24.23;;
3865;SDS011;1948;53.250;10.412;2023-01-26T05:16:20;64.37;;;22.60;;
3865;SDS011;1948;53.250;10.412;2023-01-26T05:18:47;62.20;;;24.37;;
3865;SDS011;1948;53.250;10.412;2023-01-26T05:21:14;60.90;;;23.23;;
3865;SDS011;1948;53.250;10.412;2023-01-26T05:23:44;55.57;;;22.37;;
3865;SDS011;1948;53.250;10.412;2023-01-26T05:26:14;65.43;;;24.43;;
3865;SDS011;1948;53.250;10.412;2023-01-26T05:28:41;58.83;;;24.60;;
3865;SDS011;1948;53.250;10.412;2023-01-26T05:31:10;56.83;;;23.20;;
3865;SDS011;1948;53.250;10.412;2023-01-26T05:33:42;56.43;;;22.80;;
3865;SDS011;1948;53.250;10.412;2023-01-26T05:36:09;56.67;;;22.63;;
3865;SDS011;1948;53.250;10.412;2023-01-26T05:38:45;57.50;;;22.30;;
3865;SDS011;1948;53.250;10.412;2023-01-26T05:41:15;57.80;;;23.30;;
3865;SDS011;1948;53.250;10.412;2023-01-26T05:43:44;64.97;;;23.70;;
3865;SDS011;1948;53.250;10.412;2023-01-26T05:46:13;58.27;;;23.47;;
3865;SDS011;1948;53.250;10.412;2023-01-26T05:48:42;62.67;;;23.80;;
3865;SDS011;1948;53.250;10.412;2023-01-26T05:51:11;65.23;;;24.47;;
3865;SDS011;1948;53.250;10.412;2023-01-26T05:53:40;58.30;;;23.80;;
3865;SDS011;1948;53.250;10.412;2023-01-26T05:56:07;60.60;;;24.13;;
3865;SDS011;1948;53.250;10.412;2023-01-26T05:58:38;59.83;;;23.70;;
3865;SDS011;1948;53.250;10.412;2023-01-26T06:01:10;61.53;;;22.30;;
3865;SDS011;1948;53.250;10.412;2023-01-26T06:03:37;58.83;;;23.23;;
3865;SDS011;1948;53.250;10.412;2023-01-26T06:06:06;67.10;;;24.60;;
3865;SDS011;1948;53.250;10.412;2023-01-26T06:08:33;57.70;;;23.57;;
3865;SDS011;1948;53.250;10.412;2023-01-26T06:11:00;57.23;;;22.80;;
3865;SDS011;1948;53.250;10.412;2023-01-26T06:13:27;63.50;;;23.27;;
3865;SDS011;1948;53.250;10.412;2023-01-26T06:16:00;72.43;;;25.00;;
3865;SDS011;1948;53.250;10.412;2023-01-26T06:18:27;67.97;;;25.67;;
3865;SDS011;1948;53.250;10.412;2023-01-26T06:20:57;62.27;;;23.93;;
3865;SDS011;1948;53.250;10.412;2023-01-26T06:23:26;63.63;;;25.30;;
3865;SDS011;1948;53.250;10.412;2023-01-26T06:25:59;69.77;;;25.20;;
3865;SDS011;1948;53.250;10.412;2023-01-26T06:28:27;67.67;;;24.20;;
3865;SDS011;1948;53.250;10.412;2023-01-26T06:30:59;69.23;;;25.90;;
3865;SDS011;1948;53.250;10.412;2023-01-26T06:33:28;65.00;;;25.90;;
3865;SDS011;1948;53.250;10.412;2023-01-26T06:36:02;62.30;;;23.77;;
3865;SDS011;1948;53.250;10.412;2023-01-26T06:38:43;67.47;;;24.20;;
3865;SDS011;1948;53.250;10.412;2023-01-26T06:41:12;67.73;;;25.53;;
3865;SDS011;1948;53.250;10.412;2023-01-26T06:43:39;65.07;;;26.50;;
3865;SDS011;1948;53.250;10.412;2023-01-26T06:46:10;59.57;;;24.50;;
3865;SDS011;1948;53.250;10.412;2023-01-26T06:48:40;70.30;;;24.90;;
3865;SDS011;1948;53.250;10.412;2023-01-26T06:53:52;72.53;;;26.70;;
3865;SDS011;1948;53.250;10.412;2023-01-26T06:56:25;62.03;;;23.40;;
3865;SDS011;1948;53.250;10.412;2023-01-26T06:58:53;69.70;;;26.43;;
3865;SDS011;1948;53.250;10.412;2023-01-26T07:01:24;56.47;;;21.77;;
3865;SDS011;1948;53.250;10.412;2023-01-26T07:03:53;62.50;;;25.50;;
3865;SDS011;1948;53.250;10.412;2023-01-26T07:06:20;67.77;;;23.37;;
3865;SDS011;1948;53.250;10.412;2023-01-26T07:08:47;69.80;;;25.90;;
3865;SDS011;1948;53.250;10.412;2023-01-26T07:11:17;65.03;;;24.90;;
3865;SDS011;1948;53.250;10.412;2023-01-26T07:13:45;59.00;;;23.40;;
3865;SDS011;1948;53.250;10.412;2023-01-26T07:16:17;68.63;;;26.03;;
3865;SDS011;1948;53.250;10.412;2023-01-26T07:18:46;65.67;;;24.30;;
3865;SDS011;1948;53.250;10.412;2023-01-26T07:21:14;58.00;;;22.60;;
3865;SDS011;1948;53.250;10.412;2023-01-26T07:23:44;57.87;;;22.47;;
3865;SDS011;1948;53.250;10.412;2023-01-26T07:26:16;62.43;;;22.47;;
3865;SDS011;1948;53.250;10.412;2023-01-26T07:28:43;54.43;;;21.90;;
3865;SDS011;1948;53.250;10.412;2023-01-26T07:31:13;64.10;;;22.07;;
3865;SDS011;1948;53.250;10.412;2023-01-26T07:33:40;59.67;;;23.27;;
3865;SDS011;1948;53.250;10.412;2023-01-26T07:36:07;64.47;;;23.57;;
3865;SDS011;1948;53.250;10.412;2023-01-26T07:38:36;66.67;;;23.80;;
3865;SDS011;1948;53.250;10.412;2023-01-26T07:41:06;62.70;;;23.70;;
3865;SDS011;1948;53.250;10.412;2023-01-26T07:43:36;58.47;;;22.87;;
3865;SDS011;1948;53.250;10.412;2023-01-26T07:46:09;58.33;;;23.17;;
3865;SDS011;1948;53.250;10.412;2023-01-26T07:48:37;58.50;;;23.00;;
3865;SDS011;1948;53.250;10.412;2023-01-26T07:51:05;60.93;;;22.97;;
3865;SDS011;1948;53.250;10.412;2023-01-26T07:53:34;62.00;;;24.57;;
3865;SDS011;1948;53.250;10.412;2023-01-26T07:56:13;54.27;;;22.13;;
3865;SDS011;1948;53.250;10.412;2023-01-26T07:58:41;68.80;;;23.27;;
3865;SDS011;1948;53.250;10.412;2023-01-26T08:01:11;60.63;;;24.27;;
3865;SDS011;1948;53.250;10.412;2023-01-26T08:03:40;71.60;;;26.73;;
3865;SDS011;1948;53.250;10.412;2023-01-26T08:06:14;63.00;;;23.57;;
3865;SDS011;1948;53.250;10.412;2023-01-26T08:08:42;62.63;;;23.40;;
3865;SDS011;1948;53.250;10.412;2023-01-26T08:11:17;57.73;;;24.10;;
3865;SDS011;1948;53.250;10.412;2023-01-26T08:13:44;64.07;;;22.80;;
3865;SDS011;1948;53.250;10.412;2023-01-26T08:16:16;63.57;;;24.60;;
3865;SDS011;1948;53.250;10.412;2023-01-26T08:18:48;52.27;;;21.47;;
3865;SDS011;1948;53.250;10.412;2023-01-26T08:21:16;56.30;;;22.00;;
3865;SDS011;1948;53.250;10.412;2023-01-26T08:23:48;58.63;;;22.07;;
3865;SDS011;1948;53.250;10.412;2023-01-26T08:26:16;50.40;;;20.57;;
3865;SDS011;1948;53.250;10.412;2023-01-26T08:28:48;61.03;;;22.50;;
3865;SDS011;1948;53.250;10.412;2023-01-26T08:31:17;53.03;;;21.60;;
3865;SDS011;1948;53.250;10.412;2023-01-26T08:33:46;58.87;;;23.50;;
3865;SDS011;1948;53.250;10.412;2023-01-26T08:36:18;59.00;;;21.53;;
3865;SDS011;1948;53.250;10.412;2023-01-26T08:38:47;59.90;;;21.70;;
3865;SDS011;1948;53.250;10.412;2023-01-26T08:41:17;62.07;;;22.70;;
3865;SDS011;1948;53.250;10.412;2023-01-26T08:43:44;56.73;;;21.60;;
3865;SDS011;1948;53.250;10.412;2023-01-26T08:46:14;46.90;;;20.30;;
3865;SDS011;1948;53.250;10.412;2023-01-26T08:48:43;53.70;;;20.90;;
3865;SDS011;1948;53.250;10.412;2023-01-26T08:51:12;48.73;;;20.23;;
3865;SDS011;1948;53.250;10.412;2023-01-26T08:53:39;51.27;;;21.60;;
3865;SDS011;1948;53.250;10.412;2023-01-26T08:56:07;57.30;;;22.00;;
3865;SDS011;1948;53.250;10.412;2023-01-26T08:58:37;51.13;;;21.27;;
3865;SDS011;1948;53.250;10.412;2023-01-26T09:01:06;47.43;;;20.47;;
3865;SDS011;1948;53.250;10.412;2023-01-26T09:03:37;49.40;;;21.10;;
3865;SDS011;1948;53.250;10.412;2023-01-26T09:06:05;44.83;;;20.10;;
3865;SDS011;1948;53.250;10.412;2023-01-26T09:08:34;56.60;;;21.43;;
3865;SDS011;1948;53.250;10.412;2023-01-26T09:11:04;49.10;;;20.80;;
3865;SDS011;1948;53.250;10.412;2023-01-26T09:13:32;44.33;;;17.90;;
3865;SDS011;1948;53.250;10.412;2023-01-26T09:16:02;42.20;;;19.40;;
3865;SDS011;1948;53.250;10.412;2023-01-26T09:18:31;45.27;;;20.67;;
3865;SDS011;1948;53.250;10.412;2023-01-26T09:21:01;51.30;;;21.27;;
3865;SDS011;1948;53.250;10.412;2023-01-26T09:23:36;45.50;;;20.00;;
3865;SDS011;1948;53.250;10.412;2023-01-26T09:26:03;45.63;;;20.90;;
3865;SDS011;1948;53.250;10.412;2023-01-26T09:28:30;45.20;;;20.20;;
3865;SDS011;1948;53.250;10.412;2023-01-26T09:31:08;46.57;;;19.87;;
3865;SDS011;1948;53.250;10.412;2023-01-26T09:33:36;43.10;;;19.83;;
3865;SDS011;1948;53.250;10.412;2023-01-26T09:36:04;46.00;;;18.97;;
3865;SDS011;1948;53.250;10.412;2023-01-26T09:38:34;46.33;;;19.80;;
3865;SDS011;1948;53.250;10.412;2023-01-26T09:41:25;45.77;;;19.83;;
3865;SDS011;1948;53.250;10.412;2023-01-26T09:44:15;47.77;;;19.80;;
3865;SDS011;1948;53.250;10.412;2023-01-26T09:49:25;48.97;;;19.90;;
3865;SDS011;1948;53.250;10.412;2023-01-26T09:52:18;43.57;;;18.77;;
3865;SDS011;1948;53.250;10.412;2023-01-26T09:55:05;47.03;;;18.60;;
3865;SDS011;1948;53.250;10.412;2023-01-26T09:57:49;49.87;;;20.17;;
3865;SDS011;1948;53.250;10.412;2023-01-26T10:00:37;43.67;;;18.83;;
3865;SDS011;1948;53.250;10.412;2023-01-26T10:05:54;44.10;;;19.47;;
3865;SDS011;1948;53.250;10.412;2023-01-26T10:08:32;39.77;;;17.67;;
3865;SDS011;1948;53.250;10.412;2023-01-26T10:11:03;49.60;;;19.30;;
3865;SDS011;1948;53.250;10.412;2023-01-26T10:13:42;43.10;;;18.87;;
3865;SDS011;1948;53.250;10.412;2023-01-26T10:16:22;51.93;;;20.30;;
3865;SDS011;1948;53.250;10.412;2023-01-26T10:18:53;42.73;;;18.80;;
3865;SDS011;1948;53.250;10.412;2023-01-26T10:21:32;45.70;;;19.77;;
3865;SDS011;1948;53.250;10.412;2023-01-26T10:24:07;45.83;;;19.17;;
3865;SDS011;1948;53.250;10.412;2023-01-26T10:26:36;46.33;;;19.17;;
3865;SDS011;1948;53.250;10.412;2023-01-26T10:29:03;45.77;;;20.17;;
3865;SDS011;1948;53.250;10.412;2023-01-26T10:31:33;42.97;;;18.17;;
3865;SDS011;1948;53.250;10.412;2023-01-26T10:34:15;44.03;;;17.70;;
3865;SDS011;1948;53.250;10.412;2023-01-26T10:36:49;43.47;;;19.00;;
3865;SDS011;1948;53.250;10.412;2023-01-26T10:39:18;48.80;;;20.17;;
3865;SDS011;1948;53.250;10.412;2023-01-26T10:41:59;40.60;;;17.60;;
3865;SDS011;1948;53.250;10.412;2023-01-26T10:44:31;41.57;;;18.50;;
3865;SDS011;1948;53.250;10.412;2023-01-26T10:49:38;48.67;;;19.77;;
3865;SDS011;1948;53.250;10.412;2023-01-26T10:52:13;41.53;;;17.47;;
3865;SDS011;1948;53.250;10.412;2023-01-26T10:54:53;46.80;;;17.20;;
3865;SDS011;1948;53.250;10.412;2023-01-26T10:57:45;41.63;;;17.23;;
3865;SDS011;1948;53.250;10.412;2023-01-26T11:03:37;40.00;;;17.03;;
3865;SDS011;1948;53.250;10.412;2023-01-26T11:05:45;46.07;;;18.60;;
3865;SDS011;1948;53.250;10.412;2023-01-26T11:08:32;39.37;;;17.33;;
3865;SDS011;1948;53.250;10.412;2023-01-26T11:11:02;44.30;;;17.87;;
3865;SDS011;1948;53.250;10.412;2023-01-26T11:13:35;40.40;;;18.03;;
3865;SDS011;1948;53.250;10.412;2023-01-26T11:19:01;41.13;;;16.43;;
3865;SDS011;1948;53.250;10.412;2023-01-26T11:40:18;33.57;;;16.20;;
3865;SDS011;1948;53.250;10.412;2023-01-26T11:49:02;44.53;;;17.70;;
3865;SDS011;1948;53.250;10.412;2023-01-26T11:57:53;35.27;;;16.80;;
3865;SDS011;1948;53.250;10.412;2023-01-26T12:00:38;39.10;;;16.63;;
3865;SDS011;1948;53.250;10.412;2023-01-26T12:06:47;28.93;;;15.17;;
3865;SDS011;1948;53.250;10.412;2023-01-26T12:09:20;32.10;;;14.60;;
3865;SDS011;1948;53.250;10.412;2023-01-26T12:12:28;28.03;;;14.00;;
3865;SDS011;1948;53.250;10.412;2023-01-26T12:15:12;29.80;;;14.50;;
3865;SDS011;1948;53.250;10.412;2023-01-26T12:18:16;33.77;;;14.10;;
3865;SDS011;1948;53.250;10.412;2023-01-26T12:21:16;30.50;;;14.00;;
3865;SDS011;1948;53.250;10.412;2023-01-26T12:24:01;28.77;;;12.67;;
3865;SDS011;1948;53.250;10.412;2023-01-26T12:26:38;28.10;;;13.77;;
3865;SDS011;1948;53.250;10.412;2023-01-26T12:29:27;27.23;;;14.10;;
3865;SDS011;1948;53.250;10.412;2023-01-26T12:32:12;31.50;;;14.23;;
3865;SDS011;1948;53.250;10.412;2023-01-26T12:34:42;25.03;;;13.10;;
3865;SDS011;1948;53.250;10.412;2023-01-26T12:37:29;26.07;;;12.87;;
3865;SDS011;1948;53.250;10.412;2023-01-26T12:40:56;26.10;;;13.97;;
3865;SDS011;1948;53.250;10.412;2023-01-26T12:58:59;21.87;;;11.27;;
3865;SDS011;1948;53.250;10.412;2023-01-26T13:01:57;31.77;;;11.83;;
3865;SDS011;1948;53.250;10.412;2023-01-26T13:04:24;19.27;;;11.17;;
3865;SDS011;1948;53.250;10.412;2023-01-26T13:07:01;18.40;;;10.50;;
3865;SDS011;1948;53.250;10.412;2023-01-26T13:18:53;25.27;;;11.70;;
3865;SDS011;1948;53.250;10.412;2023-01-26T13:26:58;30.80;;;13.27;;
3865;SDS011;1948;53.250;10.412;2023-01-26T13:32:50;31.53;;;14.20;;
3865;SDS011;1948;53.250;10.412;2023-01-26T13:34:50;32.47;;;15.13;;
3865;SDS011;1948;53.250;10.412;2023-01-26T13:37:26;30.37;;;13.93;;
3865;SDS011;1948;53.250;10.412;2023-01-26T13:48:41;35.17;;;14.77;;
3865;SDS011;1948;53.250;10.412;2023-01-26T13:51:26;40.63;;;16.67;;
3865;SDS011;1948;53.250;10.412;2023-01-26T13:53:56;43.57;;;16.00;;
3865;SDS011;1948;53.250;10.412;2023-01-26T14:01:40;53.23;;;17.50;;
3865;SDS011;1948;53.250;10.412;2023-01-26T14:04:18;42.60;;;17.27;;
3865;SDS011;1948;53.250;10.412;2023-01-26T14:09:43;58.73;;;18.57;;
3865;SDS011;1948;53.250;10.412;2023-01-26T14:12:18;54.73;;;17.13;;
3865;SDS011;1948;53.250;10.412;2023-01-26T14:14:55;48.53;;;18.07;;
3865;SDS011;1948;53.250;10.412;2023-01-26T14:20:23;43.60;;;18.00;;
3865;SDS011;1948;53.250;10.412;2023-01-26T14:25:41;50.63;;;18.77;;
3865;SDS011;1948;53.250;10.412;2023-01-26T14:28:14;49.80;;;18.77;;
3865;SDS011;1948;53.250;10.412;2023-01-26T14:30:49;57.33;;;18.83;;
3865;SDS011;1948;53.250;10.412;2023-01-26T14:33:21;43.57;;;17.07;;
3865;SDS011;1948;53.250;10.412;2023-01-26T14:35:54;53.67;;;18.50;;
3865;SDS011;1948;53.250;10.412;2023-01-26T14:38:25;57.03;;;18.40;;
3865;SDS011;1948;53.250;10.412;2023-01-26T14:40:55;59.03;;;17.83;;
3865;SDS011;1948;53.250;10.412;2023-01-26T14:43:25;58.67;;;20.07;;
3865;SDS011;1948;53.250;10.412;2023-01-26T14:46:13;60.93;;;20.20;;
3865;SDS011;1948;53.250;10.412;2023-01-26T14:49:17;60.13;;;19.53;;
3865;SDS011;1948;53.250;10.412;2023-01-26T14:51:55;56.27;;;19.27;;
3865;SDS011;1948;53.250;10.412;2023-01-26T14:54:29;60.53;;;20.70;;
3865;SDS011;1948;53.250;10.412;2023-01-26T14:57:04;60.87;;;22.67;;
3865;SDS011;1948;53.250;10.412;2023-01-26T14:59:35;74.07;;;25.90;;
3865;SDS011;1948;53.250;10.412;2023-01-26T15:05:15;60.50;;;20.73;;
3865;SDS011;1948;53.250;10.412;2023-01-26T15:10:23;67.83;;;21.50;;
3865;SDS011;1948;53.250;10.412;2023-01-26T15:15:44;74.30;;;21.00;;
3865;SDS011;1948;53.250;10.412;2023-01-26T15:18:19;61.40;;;20.73;;
3865;SDS011;1948;53.250;10.412;2023-01-26T15:23:45;69.73;;;19.90;;
3865;SDS011;1948;53.250;10.412;2023-01-26T15:29:25;70.63;;;20.87;;
3865;SDS011;1948;53.250;10.412;2023-01-26T15:31:59;56.83;;;20.03;;
3865;SDS011;1948;53.250;10.412;2023-01-26T15:37:24;60.40;;;19.63;;
3865;SDS011;1948;53.250;10.412;2023-01-26T15:40:01;52.73;;;19.60;;
3865;SDS011;1948;53.250;10.412;2023-01-26T15:42:31;54.13;;;19.17;;
3865;SDS011;1948;53.250;10.412;2023-01-26T15:45:05;55.20;;;18.57;;
3865;SDS011;1948;53.250;10.412;2023-01-26T15:47:53;48.93;;;17.87;;
3865;SDS011;1948;53.250;10.412;2023-01-26T15:50:20;44.60;;;16.80;;
3865;SDS011;1948;53.250;10.412;2023-01-26T15:52:53;38.70;;;15.07;;
3865;SDS011;1948;53.250;10.412;2023-01-26T15:55:20;33.43;;;14.90;;
3865;SDS011;1948;53.250;10.412;2023-01-26T15:57:56;40.97;;;15.17;;
3865;SDS011;1948;53.250;10.412;2023-01-26T16:00:26;35.90;;;15.30;;
3865;SDS011;1948;53.250;10.412;2023-01-26T16:02:53;29.40;;;13.60;;
3865;SDS011;1948;53.250;10.412;2023-01-26T16:05:20;24.30;;;12.23;;
3865;SDS011;1948;53.250;10.412;2023-01-26T16:07:49;18.30;;;10.87;;
3865;SDS011;1948;53.250;10.412;2023-01-26T16:10:21;27.40;;;12.50;;
3865;SDS011;1948;53.250;10.412;2023-01-26T16:12:53;21.80;;;11.37;;
3865;SDS011;1948;53.250;10.412;2023-01-26T16:15:27;17.80;;;11.53;;
3865;SDS011;1948;53.250;10.412;2023-01-26T16:18:05;22.07;;;10.10;;
3865;SDS011;1948;53.250;10.412;2023-01-26T16:20:32;17.77;;;10.40;;
3865;SDS011;1948;53.250;10.412;2023-01-26T16:23:01;24.13;;;10.93;;
3865;SDS011;1948;53.250;10.412;2023-01-26T16:25:31;24.43;;;11.30;;
3865;SDS011;1948;53.250;10.412;2023-01-26T16:27:58;25.47;;;11.67;;
3865;SDS011;1948;53.250;10.412;2023-01-26T16:30:27;22.77;;;11.20;;
3865;SDS011;1948;53.250;10.412;2023-01-26T16:32:54;21.50;;;11.23;;
3865;SDS011;1948;53.250;10.412;2023-01-26T16:35:21;35.70;;;13.17;;
3865;SDS011;1948;53.250;10.412;2023-01-26T16:37:49;23.90;;;12.37;;
3865;SDS011;1948;53.250;10.412;2023-01-26T16:40:16;25.70;;;11.43;;
3865;SDS011;1948;53.250;10.412;2023-01-26T16:42:48;21.40;;;11.70;;
3865;SDS011;1948;53.250;10.412;2023-01-26T16:45:20;23.90;;;13.00;;
3865;SDS011;1948;53.250;10.412;2023-01-26T16:47:52;23.50;;;11.40;;
3865;SDS011;1948;53.250;10.412;2023-01-26T16:50:27;22.03;;;11.37;;
3865;SDS011;1948;53.250;10.412;2023-01-26T16:52:56;24.07;;;12.17;;
3865;SDS011;1948;53.250;10.412;2023-01-26T16:55:23;23.93;;;11.90;;
3865;SDS011;1948;53.250;10.412;2023-01-26T16:57:50;24.40;;;12.40;;
3865;SDS011;1948;53.250;10.412;2023-01-26T17:00:18;21.90;;;11.17;;
3865;SDS011;1948;53.250;10.412;2023-01-26T17:02:52;28.90;;;12.83;;
3865;SDS011;1948;53.250;10.412;2023-01-26T17:05:22;28.50;;;13.30;;
3865;SDS011;1948;53.250;10.412;2023-01-26T17:07:49;23.73;;;13.10;;
3865;SDS011;1948;53.250;10.412;2023-01-26T17:10:16;28.87;;;13.30;;
3865;SDS011;1948;53.250;10.412;2023-01-26T17:12:43;30.13;;;14.40;;
3865;SDS011;1948;53.250;10.412;2023-01-26T17:15:13;27.10;;;14.73;;
3865;SDS011;1948;53.250;10.412;2023-01-26T17:17:40;32.17;;;13.87;;